createdAt,value
2024-01-20T00:02:48.873Z,3.80
2024-01-20T00:08:42.327Z,3.40
2024-01-20T00:14:35.821Z,2.90
2024-01-20T00:20:31.564Z,3.37
2024-01-20T00:26:25.074Z,2.90
2024-01-20T00:32:18.988Z,3.60
2024-01-20T00:38:13.936Z,3.70
2024-01-20T00:44:07.357Z,3.63
2024-01-20T00:50:00.807Z,3.30
2024-01-20T00:55:55.576Z,3.53
2024-01-20T01:01:48.990Z,3.47
2024-01-20T01:07:42.143Z,3.67
2024-01-20T01:13:38.634Z,3.30
2024-01-20T01:19:31.925Z,3.57
2024-01-20T01:25:25.280Z,3.87
2024-01-20T01:31:20.066Z,4.13
2024-01-20T01:37:13.633Z,4.67
2024-01-20T01:43:06.925Z,3.70
2024-01-20T01:49:01.773Z,4.40
2024-01-20T01:54:55.921Z,4.93
2024-01-20T02:00:50.391Z,4.03
2024-01-20T02:06:45.393Z,5.10
2024-01-20T02:12:39.687Z,5.67
2024-01-20T02:18:33.251Z,5.93
2024-01-20T02:24:29.335Z,6.30
2024-01-20T02:30:22.807Z,7.50
2024-01-20T02:36:16.354Z,5.63
2024-01-20T02:42:12.288Z,7.20
2024-01-20T02:48:06.625Z,6.80
2024-01-20T02:54:00.453Z,7.00
2024-01-20T02:59:55.226Z,6.87
2024-01-20T03:05:48.304Z,6.20
2024-01-20T03:11:41.652Z,6.40
2024-01-20T03:17:36.327Z,7.00
2024-01-20T03:23:30.311Z,6.87
2024-01-20T03:29:23.662Z,6.47
2024-01-20T03:35:18.446Z,7.40
2024-01-20T03:41:11.821Z,8.43
2024-01-20T03:47:05.355Z,8.50
2024-01-20T03:53:00.073Z,9.17
2024-01-20T03:58:53.531Z,9.47
2024-01-20T04:04:46.870Z,9.33
2024-01-20T04:10:41.691Z,9.47
2024-01-20T04:16:35.096Z,10.50
2024-01-20T04:22:28.433Z,10.07
2024-01-20T04:28:23.144Z,10.77
2024-01-20T04:34:16.614Z,10.77
2024-01-20T04:40:10.896Z,11.80
2024-01-20T04:46:05.837Z,11.30
2024-01-20T04:52:03.188Z,12.23
2024-01-20T04:57:56.661Z,11.60
2024-01-20T05:03:52.343Z,11.90
2024-01-20T05:09:45.740Z,11.37
2024-01-20T05:15:39.809Z,12.03
2024-01-20T05:21:34.610Z,11.80
2024-01-20T05:27:28.935Z,11.70
2024-01-20T05:33:22.472Z,12.33
2024-01-20T05:39:17.551Z,10.70
2024-01-20T05:45:11.914Z,10.80
2024-01-20T05:51:05.938Z,10.40
2024-01-20T05:57:01.272Z,11.93
2024-01-20T06:02:54.842Z,10.40
2024-01-20T06:08:48.159Z,11.83
2024-01-20T06:14:43.360Z,12.10
2024-01-20T06:20:40.321Z,10.27
2024-01-20T06:26:33.491Z,12.00
2024-01-20T06:32:28.030Z,11.67
2024-01-20T06:38:21.313Z,12.20
2024-01-20T06:44:14.609Z,12.13
2024-01-20T06:50:10.549Z,12.03
2024-01-20T06:56:03.605Z,11.83
2024-01-20T07:01:56.912Z,11.40
2024-01-20T07:07:51.504Z,11.60
2024-01-20T07:13:47.612Z,12.70
2024-01-20T07:19:40.979Z,11.77
2024-01-20T07:25:37.841Z,12.63
2024-01-20T07:31:31.089Z,11.63
2024-01-20T07:37:24.452Z,12.40
2024-01-20T07:43:19.067Z,12.07
2024-01-20T07:49:12.394Z,12.40
2024-01-20T07:55:05.926Z,13.00
2024-01-20T08:01:00.416Z,10.90
2024-01-20T08:06:53.694Z,11.70
2024-01-20T08:12:47.020Z,11.63
2024-01-20T08:18:41.723Z,11.27
2024-01-20T08:24:35.258Z,12.10
2024-01-20T08:30:28.681Z,12.63
2024-01-20T08:36:23.656Z,11.60
2024-01-20T08:42:17.001Z,12.50
2024-01-20T08:48:10.947Z,11.57
2024-01-20T08:54:08.856Z,11.87
2024-01-20T09:00:02.253Z,11.17
2024-01-20T09:05:55.770Z,11.50
2024-01-20T09:11:50.305Z,11.00
2024-01-20T09:17:43.690Z,11.37
2024-01-20T09:23:36.705Z,11.20
2024-01-20T09:29:31.092Z,11.23
2024-01-20T09:35:24.336Z,10.23
2024-01-20T09:41:17.938Z,11.60
2024-01-20T09:47:13.743Z,11.73
2024-01-20T09:53:15.697Z,10.20
2024-01-20T09:59:12.038Z,12.70
2024-01-20T10:05:10.465Z,12.40
2024-01-20T10:11:04.724Z,13.43
2024-01-20T10:16:58.962Z,12.60
2024-01-20T10:22:54.003Z,10.97
2024-01-20T10:28:47.866Z,11.30
2024-01-20T10:34:41.240Z,11.63
2024-01-20T10:40:41.474Z,10.70
2024-01-20T10:46:38.880Z,10.47
2024-01-20T10:52:33.740Z,9.60
2024-01-20T10:58:35.312Z,10.60
2024-01-20T11:04:34.896Z,9.13
2024-01-20T11:10:28.735Z,10.70
2024-01-20T11:16:25.163Z,10.80
2024-01-20T11:22:32.957Z,8.60
2024-01-20T11:28:27.907Z,9.43
2024-01-20T11:34:22.747Z,9.43
2024-01-20T11:40:15.982Z,10.30
2024-01-20T11:46:09.591Z,10.07
2024-01-20T11:52:04.176Z,9.90
2024-01-20T11:57:57.721Z,9.00
2024-01-20T12:03:51.205Z,10.97
2024-01-20T12:09:48.314Z,10.00
2024-01-20T12:15:41.955Z,9.70
2024-01-20T12:21:35.765Z,10.00
2024-01-20T12:27:30.685Z,8.50
2024-01-20T12:33:24.489Z,9.47
2024-01-20T12:39:18.014Z,7.90
2024-01-20T12:45:13.360Z,9.50
2024-01-20T12:51:07.216Z,10.07
2024-01-20T12:57:00.768Z,9.53
2024-01-20T13:02:55.431Z,9.03
2024-01-20T13:08:50.054Z,11.53
2024-01-20T13:14:43.898Z,9.93
2024-01-20T13:20:38.651Z,10.80
2024-01-20T13:26:32.317Z,11.07
2024-01-20T13:32:25.690Z,9.73
2024-01-20T13:38:20.409Z,10.53
2024-01-20T13:44:13.709Z,9.37
2024-01-20T13:50:08.122Z,9.20
2024-01-20T13:56:02.841Z,9.30
2024-01-20T14:01:57.177Z,9.43
2024-01-20T14:07:50.763Z,9.03
2024-01-20T14:13:45.186Z,9.53
2024-01-20T14:19:39.327Z,9.70
2024-01-20T14:25:32.498Z,9.30
2024-01-20T14:31:27.224Z,10.77
2024-01-20T14:37:20.624Z,11.17
2024-01-20T14:43:14.098Z,11.60
2024-01-20T14:49:09.055Z,12.40
2024-01-20T14:55:03.408Z,10.63
2024-01-20T15:00:56.943Z,10.00
2024-01-20T15:06:51.862Z,9.80
2024-01-20T15:12:45.255Z,10.47
2024-01-20T15:18:38.817Z,10.87
2024-01-20T15:24:33.353Z,11.20
2024-01-20T15:30:26.820Z,10.47
2024-01-20T15:36:20.320Z,11.73
2024-01-20T15:42:15.107Z,11.40
2024-01-20T15:48:09.073Z,11.97
2024-01-20T15:54:02.514Z,11.57
2024-01-20T15:59:57.170Z,11.47
2024-01-20T16:05:50.550Z,11.47
2024-01-20T16:11:43.988Z,11.50
2024-01-20T16:17:41.089Z,12.33
2024-01-20T16:23:34.614Z,12.30
2024-01-20T16:29:28.057Z,11.00
2024-01-20T16:35:22.763Z,11.27
2024-01-20T16:41:16.527Z,11.40
2024-01-20T16:47:09.615Z,10.43
2024-01-20T16:53:04.190Z,11.10
2024-01-20T16:58:57.827Z,11.90
2024-01-20T17:04:51.388Z,12.93
2024-01-20T17:10:46.533Z,11.60
2024-01-20T17:16:39.856Z,11.40
2024-01-20T17:22:33.184Z,12.67
2024-01-20T17:28:27.890Z,13.17
2024-01-20T17:34:21.236Z,14.30
2024-01-20T17:40:16.213Z,11.90
2024-01-20T17:46:11.665Z,12.17
2024-01-20T17:52:05.405Z,11.53
2024-01-20T17:58:00.656Z,12.30
2024-01-20T18:03:55.510Z,13.53
2024-01-20T18:09:49.002Z,12.20
2024-01-20T18:15:44.306Z,12.13
2024-01-20T18:21:38.944Z,14.07
2024-01-20T18:27:32.460Z,12.70
2024-01-20T18:33:26.215Z,13.87
2024-01-20T18:39:20.938Z,13.50
2024-01-20T18:45:14.622Z,13.10
2024-01-20T18:51:09.489Z,13.90
2024-01-20T18:57:07.039Z,12.63
2024-01-20T19:03:01.505Z,14.20
2024-01-20T19:08:54.826Z,13.50
2024-01-20T19:14:51.998Z,12.60
2024-01-20T19:20:47.271Z,12.23
2024-01-20T19:26:40.647Z,12.53
2024-01-20T19:32:35.341Z,12.63
2024-01-20T19:38:28.587Z,13.47
2024-01-20T19:44:22.750Z,12.87
2024-01-20T19:50:17.439Z,11.93
2024-01-20T19:56:10.770Z,12.63
2024-01-20T20:02:04.289Z,12.27
2024-01-20T20:07:58.974Z,11.53
2024-01-20T20:13:53.661Z,11.10
2024-01-20T20:19:47.062Z,10.50
2024-01-20T20:25:41.873Z,9.93
2024-01-20T20:31:35.227Z,10.13
2024-01-20T20:37:28.604Z,9.93
2024-01-20T20:43:23.254Z,9.80
2024-01-20T20:49:16.699Z,8.13
2024-01-20T20:55:10.277Z,9.23
2024-01-20T21:01:05.262Z,7.67
2024-01-20T21:06:58.708Z,7.47
2024-01-20T21:12:52.070Z,7.23
2024-01-20T21:18:46.856Z,6.87
2024-01-20T21:24:40.259Z,5.63
2024-01-20T21:30:33.545Z,5.23
2024-01-20T21:36:28.295Z,5.27
2024-01-20T21:42:21.802Z,5.47
2024-01-20T21:48:15.419Z,4.17
2024-01-20T21:54:13.342Z,4.90
2024-01-20T22:00:08.575Z,4.57
2024-01-20T22:06:06.094Z,4.73
2024-01-20T22:12:00.752Z,4.40
2024-01-20T22:17:54.246Z,5.63
2024-01-20T22:23:47.636Z,5.20
2024-01-20T22:29:42.303Z,4.13
2024-01-20T22:35:35.535Z,3.97
2024-01-20T22:41:28.835Z,4.70
2024-01-20T22:47:23.717Z,4.40
2024-01-20T22:53:17.058Z,4.63
2024-01-20T22:59:10.379Z,4.20
2024-01-20T23:05:05.367Z,3.70
2024-01-20T23:10:58.654Z,3.60
2024-01-20T23:16:52.254Z,3.53
2024-01-20T23:22:46.842Z,3.43
2024-01-20T23:28:41.346Z,3.60
2024-01-20T23:34:34.443Z,3.00
2024-01-20T23:40:29.276Z,2.67
2024-01-20T23:46:22.561Z,2.90
2024-01-20T23:52:15.710Z,2.97
2024-01-20T23:58:10.286Z,2.53
